Time;durP1;ratioP1;P1;durP2;ratioP2;P2;SDS_P1;SDS_P2;PMS_P1;PMS_P2;Temp;Humidity;BMP_temperature;BMP_pressure;BME280_temperature;BME280_humidity;BME280_pressure;Samples;Min_cycle;Max_cycle;Signal;HPM_P1;HPM_P2
2022/12/20 00:00:42;;;;;;;74.93;32.58;;;-2.80;99.90;;;;;;5053259;28;20514;-78
2022/12/20 00:03:08;;;;;;;66.30;30.95;;;-2.80;99.90;;;;;;5053290;28;20032;-77
2022/12/20 00:05:41;;;;;;;72.05;30.13;;;-2.80;99.90;;;;;;5053089;28;20568;-78
2022/12/20 00:08:08;;;;;;;66.70;30.38;;;-2.80;99.90;;;;;;5053142;28;20021;-77
2022/12/20 00:10:38;;;;;;;67.57;32.25;;;-2.70;99.90;;;;;;5051040;28;20021;-77
2022/12/20 00:13:04;;;;;;;65.50;30.08;;;-2.80;99.90;;;;;;5053067;28;20483;-78
2022/12/20 00:15:30;;;;;;;69.93;31.48;;;-2.80;99.90;;;;;;5052825;28;20052;-77
2022/12/20 00:17:56;;;;;;;67.28;32.30;;;-2.70;99.90;;;;;;5052931;28;20047;-78
2022/12/20 00:20:22;;;;;;;70.93;33.58;;;-2.70;99.90;;;;;;5052658;28;20049;-78
2022/12/20 00:22:48;;;;;;;76.18;34.38;;;-2.70;99.90;;;;;;5051712;28;20497;-78
2022/12/20 00:25:13;;;;;;;69.63;33.45;;;-2.70;99.90;;;;;;5051528;28;20025;-78
2022/12/20 00:27:39;;;;;;;68.18;30.80;;;-2.70;99.90;;;;;;5052858;28;20032;-78
2022/12/20 00:30:06;;;;;;;68.45;31.42;;;-2.60;99.90;;;;;;5051551;28;20036;-78
2022/12/20 00:32:31;;;;;;;67.55;29.55;;;-2.60;99.90;;;;;;5051595;28;20487;-78
2022/12/20 00:34:57;;;;;;;67.80;33.40;;;-2.60;99.90;;;;;;5052748;28;20025;-78
2022/12/20 00:37:22;;;;;;;63.80;29.58;;;-2.60;99.90;;;;;;5051461;28;20474;-78
2022/12/20 00:39:48;;;;;;;73.75;30.73;;;-2.60;99.90;;;;;;5052610;28;20029;-78
2022/12/20 00:42:14;;;;;;;63.03;29.88;;;-2.60;99.90;;;;;;5052816;28;20029;-78
2022/12/20 00:44:40;;;;;;;54.05;28.40;;;-2.60;99.90;;;;;;5051416;28;20485;-78
2022/12/20 00:47:05;;;;;;;60.88;29.60;;;-2.50;99.90;;;;;;5051566;28;20024;-78
2022/12/20 00:49:31;;;;;;;59.35;28.88;;;-2.50;99.90;;;;;;5051186;28;20493;-78
2022/12/20 00:51:57;;;;;;;63.03;29.75;;;-2.50;99.90;;;;;;5052675;28;20086;-78
2022/12/20 00:54:22;;;;;;;60.65;26.80;;;-2.50;99.90;;;;;;5052608;28;20033;-78
2022/12/20 00:56:48;;;;;;;63.08;28.15;;;-2.40;99.90;;;;;;5052721;28;20021;-77
2022/12/20 00:59:14;;;;;;;54.88;27.42;;;-2.40;99.90;;;;;;5051356;28;20032;-78
2022/12/20 01:01:40;;;;;;;56.25;26.27;;;-2.40;99.90;;;;;;5051228;28;20071;-78
2022/12/20 01:04:05;;;;;;;51.85;28.10;;;-2.30;99.90;;;;;;5052640;28;20040;-78
2022/12/20 01:06:31;;;;;;;55.40;25.23;;;-2.30;99.90;;;;;;5052509;28;20104;-78
2022/12/20 01:08:57;;;;;;;50.95;23.80;;;-2.30;99.90;;;;;;5051356;28;20017;-78
2022/12/20 01:11:26;;;;;;;49.78;23.27;;;-2.20;99.90;;;;;;5052312;28;20604;-78
2022/12/20 01:13:55;;;;;;;42.25;20.85;;;-2.20;99.90;;;;;;5051278;28;20030;-78
2022/12/20 01:16:26;;;;;;;46.08;22.27;;;-2.20;99.90;;;;;;5052335;28;20099;-78
2022/12/20 01:18:52;;;;;;;54.20;23.13;;;-2.10;99.90;;;;;;5051180;28;20017;-78
2022/12/20 01:21:20;;;;;;;51.53;23.83;;;-2.10;99.90;;;;;;5054166;28;20083;-78
2022/12/20 01:23:45;;;;;;;50.53;23.48;;;-2.10;99.90;;;;;;5056271;28;20025;-79
2022/12/20 01:26:13;;;;;;;47.83;22.42;;;-2.10;99.90;;;;;;5056168;28;20025;-78
2022/12/20 01:28:41;;;;;;;46.13;22.15;;;-2.10;99.90;;;;;;5055947;28;20040;-78
2022/12/20 01:31:10;;;;;;;46.13;22.42;;;-2.00;99.90;;;;;;5055940;28;20028;-78
2022/12/20 01:33:36;;;;;;;44.63;23.13;;;-2.00;99.90;;;;;;5056028;28;20025;-78
2022/12/20 01:36:07;;;;;;;46.35;20.85;;;-1.90;99.90;;;;;;5055944;28;20078;-78
2022/12/20 01:38:34;;;;;;;40.78;19.85;;;-1.90;99.90;;;;;;5040790;28;20108;-78
2022/12/20 01:41:00;;;;;;;40.97;21.92;;;-1.80;99.90;;;;;;5034922;28;20024;-75
2022/12/20 01:43:48;;;;;;;34.20;18.83;;;-1.80;99.90;;;;;;5036279;28;20103;-78
2022/12/20 01:46:14;;;;;;;46.03;20.77;;;-1.70;99.90;;;;;;5034912;28;20041;-74
2022/12/20 01:48:43;;;;;;;42.97;19.15;;;-1.70;99.90;;;;;;5036212;28;20417;-75
2022/12/20 01:51:09;;;;;;;40.72;19.08;;;-1.70;99.90;;;;;;5035862;28;20037;-78
2022/12/20 01:53:35;;;;;;;42.05;20.17;;;-1.70;99.90;;;;;;5036163;28;20049;-75
2022/12/20 01:56:04;;;;;;;50.88;20.63;;;-1.60;99.90;;;;;;5035983;28;20053;-78
2022/12/20 01:58:31;;;;;;;41.03;19.05;;;-1.70;99.90;;;;;;5035686;28;20391;-78
2022/12/20 02:00:57;;;;;;;41.80;19.13;;;-1.60;99.90;;;;;;5034496;28;20032;-78
2022/12/20 02:03:24;;;;;;;38.97;19.75;;;-1.60;99.90;;;;;;5035747;28;20035;-75
2022/12/20 02:05:50;;;;;;;41.08;19.27;;;-1.60;99.90;;;;;;5035635;28;20022;-79
2022/12/20 02:08:19;;;;;;;48.55;21.98;;;-1.70;99.90;;;;;;5035646;28;20478;-75
2022/12/20 02:11:16;;;;;;;38.28;18.90;;;-1.70;99.90;;;;;;5035471;28;20493;-74
2022/12/20 02:14:01;;;;;;;39.00;20.25;;;-1.70;99.90;;;;;;5035793;28;20034;-78
2022/12/20 02:16:33;;;;;;;37.65;21.17;;;-1.70;99.90;;;;;;5044629;28;20028;-74
2022/12/20 02:19:14;;;;;;;40.20;20.85;;;-1.70;99.90;;;;;;5055045;28;20025;-75
2022/12/20 02:21:54;;;;;;;45.15;19.60;;;-1.70;99.90;;;;;;5054283;28;20094;-74
2022/12/20 02:24:31;;;;;;;41.17;19.77;;;-1.70;99.90;;;;;;5055249;28;20075;-75
2022/12/20 02:27:03;;;;;;;44.05;18.77;;;-1.70;99.90;;;;;;5055181;28;20025;-75
2022/12/20 02:29:34;;;;;;;42.45;19.40;;;-1.60;99.90;;;;;;5054068;28;20020;-77
2022/12/20 02:32:17;;;;;;;37.38;17.95;;;-1.70;99.90;;;;;;5054655;28;20039;-78
2022/12/20 02:34:43;;;;;;;37.72;19.23;;;-1.60;99.90;;;;;;5055229;28;20111;-78
2022/12/20 02:37:10;;;;;;;39.58;18.67;;;-1.60;99.90;;;;;;5055049;28;20025;-78
2022/12/20 02:39:38;;;;;;;45.05;19.88;;;-1.60;99.90;;;;;;5055108;28;20024;-78
2022/12/20 02:42:07;;;;;;;38.63;19.38;;;-1.60;99.90;;;;;;5053651;28;20029;-75
2022/12/20 02:47:35;;;;;;;40.53;18.20;;;-1.60;99.90;;;;;;5054878;28;20083;-78
2022/12/20 02:50:03;;;;;;;40.85;19.13;;;-1.60;99.90;;;;;;5053696;28;20013;-74
2022/12/20 02:52:30;;;;;;;42.20;18.02;;;-1.60;99.90;;;;;;5053501;28;20021;-78
2022/12/20 02:54:57;;;;;;;37.08;20.10;;;-1.60;99.90;;;;;;5054792;28;20078;-73
2022/12/20 02:57:52;;;;;;;39.33;18.42;;;-1.50;99.90;;;;;;5053454;28;20017;-78
2022/12/20 03:00:21;;;;;;;39.95;16.75;;;-1.50;99.90;;;;;;5053907;28;20037;-74
2022/12/20 03:05:37;;;;;;;43.67;19.48;;;-1.50;99.90;;;;;;5054913;28;20039;-74
2022/12/20 03:08:03;;;;;;;34.53;17.92;;;-1.50;99.90;;;;;;5053221;28;20040;-74
2022/12/20 03:10:29;;;;;;;36.55;18.45;;;-1.50;99.90;;;;;;5053308;28;20021;-74
2022/12/20 03:12:55;;;;;;;33.58;17.77;;;-1.50;99.90;;;;;;5052908;28;20036;-78
2022/12/20 03:15:20;;;;;;;34.75;18.25;;;-1.50;99.90;;;;;;5054303;28;20532;-78
2022/12/20 03:17:46;;;;;;;49.75;23.20;;;-1.50;99.90;;;;;;5049636;28;20375;-78
2022/12/20 03:20:12;;;;;;;49.13;19.95;;;-1.60;99.90;;;;;;5033013;28;20455;-78
2022/12/20 03:22:38;;;;;;;38.97;18.58;;;-1.60;99.90;;;;;;5034521;28;20028;-78
2022/12/20 03:25:04;;;;;;;38.45;18.55;;;-1.60;99.90;;;;;;5034226;28;20033;-74
2022/12/20 03:27:29;;;;;;;33.40;17.33;;;-1.70;99.90;;;;;;5034094;28;20030;-75
2022/12/20 03:29:55;;;;;;;35.78;17.40;;;-1.70;99.90;;;;;;5034076;28;20032;-78
2022/12/20 03:32:21;;;;;;;37.47;16.80;;;-1.70;99.90;;;;;;5034067;28;20494;-78
2022/12/20 03:34:47;;;;;;;36.28;16.88;;;-1.80;99.90;;;;;;5032674;28;20491;-74
2022/12/20 03:37:13;;;;;;;37.85;16.67;;;-1.70;99.90;;;;;;5034096;28;20021;-78
2022/12/20 03:39:39;;;;;;;38.33;16.58;;;-1.70;99.90;;;;;;5034124;28;20079;-78
2022/12/20 03:42:05;;;;;;;32.60;15.23;;;-1.80;99.90;;;;;;5032538;28;20053;-78
2022/12/20 03:44:30;;;;;;;34.63;17.88;;;-1.80;99.90;;;;;;5032603;28;20026;-74
2022/12/20 03:46:56;;;;;;;31.75;17.88;;;-1.80;99.90;;;;;;5032656;28;20075;-75
2022/12/20 03:49:22;;;;;;;34.88;18.17;;;-1.90;99.90;;;;;;5032331;28;20063;-78
2022/12/20 03:51:47;;;;;;;54.58;22.77;;;-1.90;99.90;;;;;;5033771;28;20483;-74
2022/12/20 03:54:13;;;;;;;41.05;19.60;;;-1.90;99.90;;;;;;5033621;28;20105;-78
2022/12/20 03:56:38;;;;;;;37.80;17.45;;;-1.90;99.90;;;;;;5032402;28;20497;-78
2022/12/20 03:59:04;;;;;;;38.17;18.67;;;-2.00;99.90;;;;;;5032320;28;20566;-75
2022/12/20 04:01:30;;;;;;;36.22;16.00;;;-2.00;99.90;;;;;;5032421;28;20029;-77
2022/12/20 04:03:56;;;;;;;34.10;18.00;;;-2.00;99.90;;;;;;5032238;28;20356;-75
2022/12/20 04:06:22;;;;;;;32.53;16.67;;;-2.00;99.90;;;;;;5033733;28;20021;-77
2022/12/20 04:08:48;;;;;;;48.92;21.48;;;-2.10;99.90;;;;;;5033477;28;20391;-75
2022/12/20 04:11:17;;;;;;;37.92;20.23;;;-2.10;99.90;;;;;;5033367;28;20040;-74
2022/12/20 04:13:48;;;;;;;38.28;20.30;;;-2.10;99.90;;;;;;5048929;28;20399;-74
2022/12/20 04:16:15;;;;;;;38.58;18.95;;;-2.10;99.90;;;;;;5053188;28;20036;-74
2022/12/20 04:18:41;;;;;;;35.85;16.90;;;-2.10;99.90;;;;;;5053418;28;20107;-78
2022/12/20 04:21:08;;;;;;;37.45;19.23;;;-2.20;99.90;;;;;;5053227;28;20194;-78
2022/12/20 04:23:36;;;;;;;38.92;18.58;;;-2.20;99.90;;;;;;5053472;28;20060;-74
2022/12/20 04:26:03;;;;;;;36.50;18.08;;;-2.10;99.90;;;;;;5051886;28;20024;-78
2022/12/20 04:28:29;;;;;;;39.08;18.83;;;-2.20;99.90;;;;;;5051763;28;20491;-74
2022/12/20 04:30:55;;;;;;;43.25;19.65;;;-2.20;99.90;;;;;;5053211;28;20025;-77
2022/12/20 04:33:21;;;;;;;34.65;18.90;;;-2.20;99.90;;;;;;5051725;28;20071;-75
2022/12/20 04:35:47;;;;;;;32.22;17.05;;;-2.20;99.90;;;;;;5051842;28;20064;-74
2022/12/20 04:38:13;;;;;;;33.97;17.35;;;-2.30;99.90;;;;;;5053000;28;20049;-74
2022/12/20 04:40:38;;;;;;;33.05;18.10;;;-2.30;99.90;;;;;;5052988;28;20499;-74
2022/12/20 04:43:04;;;;;;;41.08;19.10;;;-2.30;99.90;;;;;;5051736;28;20044;-75
2022/12/20 04:45:29;;;;;;;39.13;18.88;;;-2.30;99.90;;;;;;5052963;28;20352;-78
2022/12/20 04:47:55;;;;;;;43.38;19.58;;;-2.30;99.90;;;;;;5051640;28;20067;-78
2022/12/20 04:50:20;;;;;;;33.40;17.73;;;-2.30;99.90;;;;;;5052845;28;20525;-78
2022/12/20 04:55:35;;;;;;;36.60;18.25;;;-2.30;99.90;;;;;;5053606;28;20517;-74
2022/12/20 04:58:01;;;;;;;43.67;20.13;;;-2.30;99.90;;;;;;5055799;28;20032;-78
2022/12/20 05:00:26;;;;;;;37.45;16.88;;;-2.40;99.90;;;;;;5056885;28;20025;-74
2022/12/20 05:02:52;;;;;;;38.17;19.30;;;-2.40;99.90;;;;;;5056912;28;20082;-78
2022/12/20 05:05:17;;;;;;;35.00;17.73;;;-2.40;99.90;;;;;;5055521;28;20060;-78
2022/12/20 05:07:43;;;;;;;45.00;22.08;;;-2.40;99.90;;;;;;5055588;28;20498;-74
2022/12/20 05:10:09;;;;;;;36.67;18.55;;;-2.50;99.90;;;;;;5056698;28;20021;-78
2022/12/20 05:12:35;;;;;;;42.25;20.40;;;-2.50;99.90;;;;;;5056710;28;20055;-74
2022/12/20 05:15:00;;;;;;;40.17;19.73;;;-2.50;99.90;;;;;;5055211;28;20555;-79
2022/12/20 05:17:26;;;;;;;35.08;18.63;;;-2.50;99.90;;;;;;5056502;28;20052;-75
2022/12/20 05:19:51;;;;;;;51.38;20.70;;;-2.50;99.90;;;;;;5054970;28;20049;-74
2022/12/20 05:27:45;;;;;;;37.05;20.65;;;-2.50;99.90;;;;;;5056834;28;20079;-77
2022/12/20 05:30:11;;;;;;;43.67;20.08;;;-2.50;99.90;;;;;;5056288;28;20025;-78
2022/12/20 05:32:36;;;;;;;43.75;21.05;;;-2.50;99.90;;;;;;5056311;28;20405;-75
2022/12/20 05:35:02;;;;;;;42.17;18.30;;;-2.50;99.90;;;;;;5054018;28;20029;-75
2022/12/20 05:37:28;;;;;;;39.28;18.88;;;-2.40;99.90;;;;;;5054895;28;20036;-74
2022/12/20 05:39:53;;;;;;;43.90;19.60;;;-2.40;99.90;;;;;;5054916;28;20108;-79
2022/12/20 05:42:19;;;;;;;38.47;19.90;;;-2.40;99.90;;;;;;5054849;28;20020;-78
2022/12/20 05:44:45;;;;;;;44.30;21.05;;;-2.50;99.90;;;;;;5054689;28;20025;-74
2022/12/20 05:47:10;;;;;;;39.50;18.90;;;-2.50;99.90;;;;;;5054809;28;20031;-78
2022/12/20 05:49:36;;;;;;;42.22;20.08;;;-2.50;99.90;;;;;;5055839;28;20032;-78
2022/12/20 05:52:02;;;;;;;45.55;22.08;;;-2.50;99.90;;;;;;5054713;28;20509;-75
2022/12/20 05:54:27;;;;;;;45.03;20.35;;;-2.50;99.90;;;;;;5055908;28;20472;-74
2022/12/20 05:56:53;;;;;;;43.42;18.13;;;-2.50;99.90;;;;;;5055699;28;20107;-74
2022/12/20 05:59:19;;;;;;;38.17;20.10;;;-2.40;99.90;;;;;;5051896;28;20094;-78
2022/12/20 06:01:44;;;;;;;38.45;17.33;;;-2.40;99.90;;;;;;5055746;28;20079;-79
2022/12/20 06:04:10;;;;;;;42.30;18.50;;;-2.50;99.90;;;;;;5055934;28;20070;-75
2022/12/20 06:06:36;;;;;;;44.13;19.27;;;-2.50;99.90;;;;;;5055371;28;20034;-74
2022/12/20 06:09:02;;;;;;;43.00;19.92;;;-2.50;99.90;;;;;;5053440;28;20119;-75
2022/12/20 06:11:28;;;;;;;42.33;19.58;;;-2.40;99.90;;;;;;5054071;28;20017;-79
2022/12/20 06:13:54;;;;;;;43.70;20.60;;;-2.40;99.90;;;;;;5048307;28;20079;-75
2022/12/20 06:16:22;;;;;;;45.03;20.23;;;-2.50;99.90;;;;;;5045917;28;20025;-76
2022/12/20 06:18:47;;;;;;;42.47;19.60;;;-2.50;99.90;;;;;;5054041;28;20017;-79
2022/12/20 06:21:13;;;;;;;47.83;20.83;;;-2.50;99.90;;;;;;5053948;28;20053;-79
2022/12/20 06:23:39;;;;;;;50.15;23.80;;;-2.40;99.90;;;;;;5055430;28;20029;-79
2022/12/20 06:26:07;;;;;;;45.13;22.85;;;-2.50;99.90;;;;;;5055261;28;20045;-79
2022/12/20 06:28:33;;;;;;;54.60;23.92;;;-2.50;99.90;;;;;;5055316;28;20437;-75
2022/12/20 06:30:59;;;;;;;50.92;22.55;;;-2.40;99.90;;;;;;5054594;28;20021;-74
2022/12/20 06:33:24;;;;;;;52.22;24.52;;;-2.40;99.90;;;;;;5054810;28;20082;-75
2022/12/20 06:35:51;;;;;;;55.55;25.90;;;-2.30;99.90;;;;;;5052638;28;20025;-74
2022/12/20 06:38:17;;;;;;;60.50;29.02;;;-2.20;99.90;;;;;;5053451;28;20029;-78
2022/12/20 06:40:43;;;;;;;74.10;30.75;;;-2.20;99.90;;;;;;5053973;28;20033;-79
2022/12/20 06:43:08;;;;;;;89.32;37.08;;;-2.20;99.90;;;;;;5052897;28;20742;-78
2022/12/20 06:45:34;;;;;;;82.90;35.63;;;-2.20;99.90;;;;;;5053152;28;20106;-74
2022/12/20 06:47:59;;;;;;;69.32;29.38;;;-2.20;99.90;;;;;;5048906;28;20036;-78
2022/12/20 06:50:26;;;;;;;67.75;30.10;;;-2.20;99.90;;;;;;5033991;28;20382;-79
2022/12/20 06:52:52;;;;;;;51.70;24.30;;;-2.20;99.90;;;;;;5034313;28;20041;-79
2022/12/20 06:55:17;;;;;;;44.40;22.58;;;-2.20;99.90;;;;;;5035824;28;20462;-81
2022/12/20 06:57:43;;;;;;;45.90;21.88;;;-2.20;99.90;;;;;;5062138;28;20067;-78
2022/12/20 07:00:11;;;;;;;60.65;28.17;;;-2.20;99.90;;;;;;5051031;28;20474;-78
2022/12/20 07:02:37;;;;;;;66.82;31.27;;;-2.30;99.90;;;;;;5051997;28;20024;-74
2022/12/20 07:05:03;;;;;;;87.43;38.00;;;-2.20;99.90;;;;;;5047119;28;20036;-74
2022/12/20 07:07:29;;;;;;;57.40;29.60;;;-2.30;99.90;;;;;;5049943;28;20017;-74
2022/12/20 07:09:54;;;;;;;72.32;28.90;;;-2.30;99.90;;;;;;5053004;28;20029;-79
2022/12/20 07:12:20;;;;;;;90.32;37.55;;;-2.20;99.90;;;;;;5054075;28;20112;-78
2022/12/20 07:14:46;;;;;;;65.35;29.65;;;-2.20;99.90;;;;;;5052895;28;20071;-79
2022/12/20 07:17:11;;;;;;;55.42;27.42;;;-2.20;99.90;;;;;;5046770;28;20064;-78
2022/12/20 07:19:37;;;;;;;63.10;27.85;;;-2.10;99.90;;;;;;5053702;28;20402;-78
2022/12/20 07:22:04;;;;;;;59.00;25.65;;;-2.00;99.90;;;;;;5053588;28;20557;-75
2022/12/20 07:24:30;;;;;;;56.85;26.08;;;-1.90;99.90;;;;;;5052756;28;20032;-78
2022/12/20 07:26:55;;;;;;;56.88;27.33;;;-1.90;99.90;;;;;;5052566;28;20021;-74
2022/12/20 07:29:21;;;;;;;78.55;36.10;;;-1.80;99.90;;;;;;5049411;28;20025;-78
2022/12/20 07:31:47;;;;;;;75.40;34.70;;;-1.70;99.90;;;;;;5050873;28;20035;-79
2022/12/20 07:34:12;;;;;;;68.55;31.52;;;-1.70;99.90;;;;;;5044537;28;20032;-79
2022/12/20 07:36:38;;;;;;;90.28;39.20;;;-1.70;99.90;;;;;;5041400;28;20024;-79
2022/12/20 07:39:04;;;;;;;73.65;33.28;;;-1.70;99.90;;;;;;5044899;28;20022;-78
2022/12/20 07:41:30;;;;;;;66.78;30.17;;;-1.60;99.90;;;;;;5048077;28;20025;-78
2022/12/20 07:43:57;;;;;;;62.25;30.85;;;-1.50;99.90;;;;;;5053502;28;20027;-78
2022/12/20 07:46:22;;;;;;;66.22;30.15;;;-1.40;99.90;;;;;;5052199;28;20040;-78
2022/12/20 07:48:48;;;;;;;62.30;29.05;;;-1.40;99.90;;;;;;5053419;28;20025;-78
2022/12/20 07:51:36;;;;;;;62.80;29.50;;;-1.30;99.90;;;;;;5053320;28;20100;-78
2022/12/20 07:54:10;;;;;;;65.18;29.10;;;-1.20;99.90;;;;;;5052540;28;20044;-80
2022/12/20 07:56:39;;;;;;;73.93;35.65;;;-1.10;99.90;;;;;;5048700;28;20479;-80
2022/12/20 07:59:06;;;;;;;57.35;29.90;;;-1.10;99.90;;;;;;5038992;28;20413;-79
2022/12/20 08:01:32;;;;;;;45.00;23.60;;;-0.90;99.90;;;;;;5053285;28;20028;-80
2022/12/20 08:04:11;;;;;;;45.78;23.00;;;-0.90;99.90;;;;;;5053210;28;20025;-79
2022/12/20 08:06:39;;;;;;;42.70;19.35;;;-0.90;99.90;;;;;;5053237;28;20056;-80
2022/12/20 08:09:05;;;;;;;46.78;20.17;;;-0.90;99.90;;;;;;5051753;28;20359;-79
2022/12/20 08:11:34;;;;;;;42.22;19.95;;;-0.90;99.90;;;;;;5052961;28;20025;-79
2022/12/20 08:14:00;;;;;;;41.10;19.50;;;-0.90;99.90;;;;;;5053210;28;20021;-79
2022/12/20 08:16:25;;;;;;;45.40;20.98;;;-0.90;99.90;;;;;;5052906;28;20040;-79
2022/12/20 08:18:51;;;;;;;48.42;24.08;;;-0.80;99.90;;;;;;5052951;28;20028;-79
2022/12/20 08:21:17;;;;;;;59.75;28.48;;;-0.90;99.90;;;;;;5053075;28;20502;-75
2022/12/20 08:23:43;;;;;;;44.70;23.88;;;-0.80;99.90;;;;;;5053094;28;20041;-75
2022/12/20 08:26:09;;;;;;;50.50;23.20;;;-0.80;99.90;;;;;;5052878;28;20106;-74
2022/12/20 08:28:35;;;;;;;60.97;27.70;;;-0.70;99.90;;;;;;5051665;28;20029;-75
2022/12/20 08:31:02;;;;;;;56.90;24.98;;;-0.70;99.90;;;;;;5049535;28;20032;-74
2022/12/20 08:33:28;;;;;;;59.20;24.70;;;-0.60;99.90;;;;;;5051465;28;20167;-74
2022/12/20 08:36:02;;;;;;;60.67;26.08;;;-0.60;99.90;;;;;;5051611;28;20032;-74
2022/12/20 08:38:29;;;;;;;55.13;26.10;;;-0.60;99.90;;;;;;5052646;28;20462;-74
2022/12/20 08:41:00;;;;;;;44.17;21.95;;;-0.60;99.90;;;;;;5051476;28;20103;-74
2022/12/20 08:43:26;;;;;;;53.08;22.17;;;-0.50;99.90;;;;;;5052905;28;20919;-74
2022/12/20 08:45:53;;;;;;;44.17;21.83;;;-0.50;99.90;;;;;;5051541;28;20115;-74
2022/12/20 08:48:19;;;;;;;42.58;22.00;;;-0.50;99.90;;;;;;5052661;28;20017;-75
2022/12/20 08:50:45;;;;;;;46.67;21.90;;;-0.40;99.90;;;;;;5052667;28;20036;-79
2022/12/20 08:53:10;;;;;;;43.78;21.20;;;-0.30;99.90;;;;;;5052576;28;20037;-74
2022/12/20 08:55:36;;;;;;;49.10;23.02;;;-0.30;99.90;;;;;;5052711;28;20029;-78
2022/12/20 08:58:01;;;;;;;40.22;20.38;;;-0.40;99.90;;;;;;5051327;28;20028;-78
2022/12/20 09:00:27;;;;;;;39.55;20.27;;;-0.30;99.90;;;;;;5052618;28;20033;-79
2022/12/20 09:02:53;;;;;;;46.65;23.00;;;-0.30;99.90;;;;;;5052657;28;20032;-75
2022/12/20 09:05:19;;;;;;;44.38;21.70;;;-0.30;99.90;;;;;;5051063;28;20017;-74
2022/12/20 09:07:45;;;;;;;43.67;22.50;;;-0.20;99.90;;;;;;5052444;28;20025;-74
2022/12/20 09:10:12;;;;;;;47.63;21.83;;;-0.20;99.90;;;;;;5052644;28;20096;-74
2022/12/20 09:12:37;;;;;;;52.28;24.02;;;-0.10;99.90;;;;;;5052156;28;20581;-79
2022/12/20 09:15:04;;;;;;;48.30;24.60;;;0.00;99.90;;;;;;5052411;28;20112;-74
2022/12/20 09:17:30;;;;;;;46.42;23.30;;;0.10;99.90;;;;;;5031080;28;20091;-74
2022/12/20 09:19:56;;;;;;;46.83;22.35;;;0.10;99.90;;;;;;5044655;28;20041;-74
2022/12/20 09:22:21;;;;;;;46.00;23.27;;;0.10;99.90;;;;;;5050968;28;20025;-75
2022/12/20 09:24:48;;;;;;;50.55;24.85;;;0.10;99.90;;;;;;5052336;28;20024;-75
2022/12/20 09:27:14;;;;;;;49.47;25.38;;;0.00;99.90;;;;;;5052280;28;20095;-75
2022/12/20 09:29:39;;;;;;;42.88;21.88;;;0.00;99.90;;;;;;5052435;28;20066;-75
2022/12/20 09:32:05;;;;;;;52.75;26.10;;;0.00;99.90;;;;;;5047018;28;20041;-76
2022/12/20 09:34:31;;;;;;;46.20;22.77;;;0.00;99.90;;;;;;5032495;28;20479;-75
2022/12/20 09:36:56;;;;;;;47.30;22.63;;;0.00;99.90;;;;;;5031249;28;20029;-80
2022/12/20 09:39:22;;;;;;;55.25;25.88;;;-0.10;99.90;;;;;;5032210;28;20586;-80
2022/12/20 09:41:47;;;;;;;49.97;25.38;;;0.00;99.90;;;;;;5033454;28;20022;-75
2022/12/20 09:44:30;;;;;;;56.78;27.00;;;-0.10;99.90;;;;;;5036058;28;20030;-81
2022/12/20 09:47:10;;;;;;;50.53;25.00;;;-0.10;99.90;;;;;;5036820;28;20104;-79
2022/12/20 09:49:40;;;;;;;51.33;24.45;;;0.00;99.90;;;;;;5035828;28;20104;-74
2022/12/20 09:52:36;;;;;;;54.53;25.65;;;0.10;99.90;;;;;;5035787;28;20032;-75
2022/12/20 09:55:33;;;;;;;57.33;24.25;;;0.10;99.90;;;;;;5053844;28;20029;-75
2022/12/20 09:58:02;;;;;;;55.88;26.42;;;0.20;99.90;;;;;;5054130;28;20029;-80
2022/12/20 10:00:29;;;;;;;62.88;27.73;;;0.20;99.90;;;;;;5055542;28;20024;-75
2022/12/20 10:02:55;;;;;;;48.72;25.13;;;0.30;99.90;;;;;;5040093;28;20537;-75
2022/12/20 10:05:35;;;;;;;49.40;24.30;;;0.30;99.90;;;;;;5068384;28;20032;-79
2022/12/20 10:08:22;;;;;;;45.45;23.35;;;0.30;99.90;;;;;;5055416;28;20021;-75
2022/12/20 10:10:58;;;;;;;51.88;25.67;;;0.30;99.90;;;;;;5055512;28;20360;-80
2022/12/20 10:13:55;;;;;;;47.28;23.45;;;0.30;99.90;;;;;;5041846;28;20033;-75
2022/12/20 10:16:38;;;;;;;47.63;23.58;;;0.40;99.90;;;;;;5046595;28;20514;-75
2022/12/20 10:19:29;;;;;;;57.80;26.05;;;0.30;99.90;;;;;;5054114;28;20037;-75
2022/12/20 10:22:22;;;;;;;46.92;23.70;;;0.40;99.90;;;;;;5054300;28;20053;-75
2022/12/20 10:25:14;;;;;;;46.72;24.10;;;0.30;99.90;;;;;;5054183;28;20021;-75
2022/12/20 10:27:45;;;;;;;59.80;29.70;;;0.40;99.90;;;;;;5051779;28;20033;-75
2022/12/20 10:30:20;;;;;;;60.53;31.13;;;0.40;99.90;;;;;;5055265;28;20025;-78
2022/12/20 10:32:48;;;;;;;60.97;28.33;;;0.50;99.90;;;;;;5053567;28;20032;-79
2022/12/20 10:35:14;;;;;;;54.72;29.77;;;0.60;99.90;;;;;;5052979;28;20025;-75
2022/12/20 10:37:58;;;;;;;53.90;28.45;;;0.60;99.90;;;;;;5053415;28;20082;-79
2022/12/20 10:40:36;;;;;;;64.60;32.25;;;0.70;99.90;;;;;;5053531;28;20029;-75
2022/12/20 10:43:03;;;;;;;54.53;28.42;;;0.70;99.90;;;;;;5052875;28;20033;-75
2022/12/20 10:45:39;;;;;;;50.90;27.10;;;0.70;99.90;;;;;;5054311;28;20025;-76
2022/12/20 10:48:25;;;;;;;61.83;34.47;;;0.70;99.90;;;;;;5055030;28;20482;-75
2022/12/20 10:51:01;;;;;;;66.07;34.63;;;0.70;99.90;;;;;;5054969;28;20032;-80
2022/12/20 10:53:27;;;;;;;51.20;29.20;;;0.80;99.90;;;;;;5053189;28;20040;-75
2022/12/20 10:56:07;;;;;;;60.20;30.33;;;0.80;99.90;;;;;;5053567;28;20032;-80
2022/12/20 10:58:34;;;;;;;57.70;28.52;;;0.90;99.90;;;;;;5054789;28;20383;-75
2022/12/20 11:01:30;;;;;;;46.38;22.55;;;1.00;99.90;;;;;;5054750;28;20028;-75
2022/12/20 11:04:23;;;;;;;51.70;24.63;;;0.90;99.90;;;;;;5052607;28;20082;-79
2022/12/20 11:06:50;;;;;;;47.33;22.73;;;1.00;99.90;;;;;;5054734;28;20025;-79
2022/12/20 11:09:36;;;;;;;48.88;24.27;;;1.00;99.90;;;;;;5049798;28;20501;-79
2022/12/20 11:12:15;;;;;;;47.95;22.52;;;1.00;99.90;;;;;;5033345;28;20029;-80
2022/12/20 11:14:44;;;;;;;55.08;28.38;;;1.10;99.90;;;;;;5034567;28;20037;-80
2022/12/20 11:17:32;;;;;;;63.55;33.03;;;1.00;99.90;;;;;;5050891;28;20036;-75
2022/12/20 11:20:35;;;;;;;65.55;34.13;;;1.10;99.90;;;;;;5052832;28;20053;-80
2022/12/20 11:23:25;;;;;;;61.97;30.33;;;1.10;99.90;;;;;;5053068;28;20059;-80
2022/12/20 11:26:03;;;;;;;57.15;28.80;;;1.10;99.90;;;;;;5054092;28;20114;-80
2022/12/20 11:28:51;;;;;;;59.35;32.03;;;1.20;99.90;;;;;;5054434;28;20036;-75
2022/12/20 11:31:43;;;;;;;50.45;27.17;;;1.10;99.90;;;;;;5054280;28;20055;-75
2022/12/20 11:34:34;;;;;;;56.10;26.92;;;1.10;99.90;;;;;;5054148;28;20048;-75
2022/12/20 11:37:16;;;;;;;98.75;41.80;;;1.10;99.90;;;;;;5052737;28;20067;-75
2022/12/20 11:40:05;;;;;;;78.13;38.33;;;1.10;99.90;;;;;;5054060;28;20025;-79
2022/12/20 11:42:52;;;;;;;59.88;27.75;;;1.20;99.90;;;;;;5052694;28;20021;-79
2022/12/20 11:45:44;;;;;;;57.33;32.35;;;1.20;99.90;;;;;;5053895;28;20024;-79
2022/12/20 11:48:34;;;;;;;62.22;33.42;;;1.20;99.90;;;;;;5054138;28;20021;-75
2022/12/20 11:51:10;;;;;;;58.80;33.88;;;1.20;99.90;;;;;;5053790;28;20117;-75
2022/12/20 11:53:40;;;;;;;70.63;38.38;;;1.20;99.90;;;;;;5053879;28;20037;-79
2022/12/20 11:56:17;;;;;;;65.18;35.75;;;1.30;99.90;;;;;;5053657;28;20027;-75
2022/12/20 11:58:55;;;;;;;87.35;49.97;;;1.30;99.90;;;;;;5053846;28;20021;-79
2022/12/20 12:01:26;;;;;;;91.63;52.40;;;1.40;99.90;;;;;;5052378;28;20039;-80
2022/12/20 12:04:22;;;;;;;68.22;34.20;;;1.40;99.90;;;;;;5051900;28;20044;-79
2022/12/20 12:07:00;;;;;;;99.85;41.10;;;1.50;99.90;;;;;;5052590;28;20538;-75
2022/12/20 12:09:35;;;;;;;70.18;36.28;;;1.60;99.90;;;;;;5052236;28;20530;-75
2022/12/20 12:12:18;;;;;;;57.70;35.13;;;1.80;99.90;;;;;;5052165;28;20183;-75
2022/12/20 12:15:03;;;;;;;75.22;34.45;;;1.80;99.90;;;;;;5052120;28;20029;-79
2022/12/20 12:17:40;;;;;;;53.13;26.52;;;1.90;99.90;;;;;;5032329;28;20018;-80
2022/12/20 12:20:34;;;;;;;58.63;31.45;;;2.00;99.90;;;;;;5033164;28;20041;-75
2022/12/20 12:23:14;;;;;;;63.05;28.98;;;2.00;99.90;;;;;;5033671;28;20104;-75
2022/12/20 12:25:40;;;;;;;57.83;28.38;;;2.10;99.90;;;;;;5044585;28;20029;-80
2022/12/20 12:28:05;;;;;;;65.88;34.13;;;2.10;99.90;;;;;;5051935;28;20090;-79
2022/12/20 12:30:44;;;;;;;73.47;34.95;;;2.00;99.90;;;;;;5053022;28;20540;-75
2022/12/20 12:33:21;;;;;;;75.43;32.80;;;2.00;99.90;;;;;;5053094;28;20052;-80
2022/12/20 12:36:07;;;;;;;46.17;25.10;;;2.00;99.90;;;;;;5051794;28;20489;-80
2022/12/20 12:39:12;;;;;;;60.65;33.63;;;2.00;99.90;;;;;;5051970;28;20021;-79
2022/12/20 12:42:07;;;;;;;81.80;38.58;;;1.90;99.90;;;;;;5053591;28;20052;-80
2022/12/20 12:44:37;;;;;;;58.38;29.88;;;1.90;99.90;;;;;;5053233;28;20394;-79
2022/12/20 12:47:10;;;;;;;60.78;31.92;;;1.90;99.90;;;;;;5053066;28;20028;-75
2022/12/20 12:49:36;;;;;;;67.20;38.55;;;1.90;99.90;;;;;;5052950;28;20550;-75
2022/12/20 12:52:04;;;;;;;75.03;36.17;;;1.90;99.90;;;;;;5051726;28;20033;-75
2022/12/20 12:54:39;;;;;;;58.83;27.90;;;1.90;99.90;;;;;;5051568;28;20060;-79
2022/12/20 12:57:15;;;;;;;54.22;32.67;;;1.80;99.90;;;;;;5053006;28;20020;-80
2022/12/20 12:59:47;;;;;;;82.55;39.38;;;1.70;99.90;;;;;;5051762;28;20013;-79